Time;durP1;ratioP1;P1;durP2;ratioP2;P2;SDS_P1;SDS_P2;PMS_P1;PMS_P2;Temp;Humidity;BMP_temperature;BMP_pressure;BME280_temperature;BME280_humidity;BME280_pressure;Samples;Min_cycle;Max_cycle;Signal;HPM_P1;HPM_P2
2023/10/21 00:00:39;;;;;;;6.25;2.88;;;;;;;6.43;73.91;99299.63;5050186;28;20036;-41
2023/10/21 00:03:05;;;;;;;5.15;2.50;;;;;;;6.44;74.47;99307.31;5049954;28;20040;-43
2023/10/21 00:05:31;;;;;;;3.30;1.98;;;;;;;6.42;73.99;99300.50;5068666;28;20177;-40
2023/10/21 00:07:57;;;;;;;4.68;2.40;;;;;;;6.39;74.30;99306.56;5067595;28;20036;-42
2023/10/21 00:10:23;;;;;;;5.90;2.67;;;;;;;6.42;74.58;99305.66;5066959;28;20045;-42
2023/10/21 00:12:49;;;;;;;4.75;2.50;;;;;;;6.22;74.59;99278.59;5065847;28;20040;-41
2023/10/21 00:15:15;;;;;;;4.07;2.35;;;;;;;6.43;74.52;99312.53;5066851;28;20044;-42
2023/10/21 00:17:41;;;;;;;4.00;2.53;;;;;;;6.44;74.30;99316.81;5067491;28;20078;-41
2023/10/21 00:20:08;;;;;;;4.35;2.47;;;;;;;6.42;74.02;99327.16;5066205;28;20044;-42
2023/10/21 00:22:36;;;;;;;4.82;2.97;;;;;;;6.21;74.71;99292.38;5049916;28;20087;-42
2023/10/21 00:25:04;;;;;;;5.95;2.78;;;;;;;6.34;74.42;99308.41;5033314;28;20125;-42
2023/10/21 00:27:31;;;;;;;4.65;2.65;;;;;;;6.44;74.76;99338.28;5068138;28;20040;-43
2023/10/21 00:29:57;;;;;;;4.97;2.90;;;;;;;6.44;74.66;99340.88;5066364;28;20056;-41
2023/10/21 00:32:23;;;;;;;5.60;2.90;;;;;;;6.46;74.72;99339.13;5035169;28;20044;-41
2023/10/21 00:34:49;;;;;;;6.05;3.42;;;;;;;6.44;74.26;99343.44;5083398;28;20052;-40
2023/10/21 00:37:15;;;;;;;4.38;2.72;;;;;;;6.43;74.41;99339.19;5066403;28;20460;-42
2023/10/21 00:39:42;;;;;;;4.80;2.70;;;;;;;6.46;74.97;99349.44;5048696;28;20057;-42
2023/10/21 00:42:09;;;;;;;4.75;2.95;;;;;;;6.43;74.55;99349.53;5065564;28;20052;-42
2023/10/21 00:44:35;;;;;;;4.00;2.90;;;;;;;6.25;74.45;99318.94;5066399;28;20167;-41
2023/10/21 00:47:02;;;;;;;3.92;2.63;;;;;;;6.43;74.32;99354.69;5048874;28;20063;-43
2023/10/21 00:49:29;;;;;;;4.28;2.25;;;;;;;6.49;74.70;99345.97;5066064;28;20859;-41
2023/10/21 00:51:56;;;;;;;3.83;1.85;;;;;;;6.16;74.44;99298.53;5049315;28;20036;-42
2023/10/21 00:54:25;;;;;;;3.70;2.33;;;;;;;6.44;74.54;99358.94;5049724;28;20530;-41
2023/10/21 00:56:51;;;;;;;4.57;2.50;;;;;;;6.45;74.71;99354.63;5053763;28;20036;-42
2023/10/21 00:59:18;;;;;;;5.55;2.42;;;;;;;6.47;74.39;99358.03;5038269;28;20500;-42
2023/10/21 01:01:45;;;;;;;3.38;2.13;;;;;;;6.48;73.82;99350.28;5067456;28;20043;-42
2023/10/21 01:04:13;;;;;;;3.08;2.10;;;;;;;6.17;74.36;99310.53;5049030;28;20108;-42
2023/10/21 01:06:39;;;;;;;3.90;2.30;;;;;;;6.44;74.09;99356.38;5046127;28;20041;-43
2023/10/21 01:09:05;;;;;;;3.63;2.28;;;;;;;6.20;74.32;99329.38;5065428;28;20075;-41
2023/10/21 01:11:32;;;;;;;4.00;2.42;;;;;;;6.18;74.39;99320.81;5065349;28;20040;-42
2023/10/21 01:13:58;;;;;;;4.65;2.40;;;;;;;6.35;74.40;99348.84;5042888;28;20132;-41
2023/10/21 01:16:24;;;;;;;3.67;2.20;;;;;;;6.36;73.99;99359.13;5063249;28;20484;-42
2023/10/21 01:18:49;;;;;;;3.85;2.35;;;;;;;6.41;74.42;99351.28;5048795;28;20453;-41
2023/10/21 01:21:15;;;;;;;5.78;2.83;;;;;;;6.40;74.32;99354.75;5051452;28;20037;-42
2023/10/21 01:23:41;;;;;;;3.65;2.38;;;;;;;6.39;74.45;99366.81;5055791;28;20040;-42
2023/10/21 01:26:07;;;;;;;5.10;3.30;;;;;;;6.39;74.30;99366.81;5049134;28;20071;-42
2023/10/21 01:28:33;;;;;;;4.80;2.85;;;;;;;6.42;74.67;99372.78;5048967;28;20028;-42
2023/10/21 01:31:00;;;;;;;4.15;2.75;;;;;;;6.45;74.13;99370.13;5064542;28;20042;-41
2023/10/21 01:33:26;;;;;;;4.60;2.40;;;;;;;6.46;74.76;99379.56;5066429;28;20051;-40
2023/10/21 01:35:52;;;;;;;5.38;2.67;;;;;;;6.47;74.21;99389.88;5065216;28;20044;-41
2023/10/21 01:38:20;;;;;;;5.43;2.88;;;;;;;6.47;74.02;99376.97;5066455;28;20480;-43
2023/10/21 01:40:49;;;;;;;7.45;3.22;;;;;;;6.30;74.55;99354.09;5057736;28;20415;-41
2023/10/21 01:43:16;;;;;;;7.85;3.80;;;;;;;6.24;74.45;99345.66;5062246;28;20041;-44
2023/10/21 01:45:41;;;;;;;5.32;3.13;;;;;;;6.45;73.95;99377.88;5047002;28;20052;-41
2023/10/21 01:48:08;;;;;;;6.55;2.85;;;;;;;6.47;74.23;99384.72;5065152;28;20040;-41
2023/10/21 01:50:37;;;;;;;5.97;3.27;;;;;;;6.47;74.41;99389.03;5063647;28;20186;-42
2023/10/21 01:53:03;;;;;;;5.38;2.80;;;;;;;6.28;73.94;99355.88;5063349;28;20294;-41
2023/10/21 01:55:29;;;;;;;7.95;3.15;;;;;;;6.44;73.66;99383.94;5046289;28;20447;-41
2023/10/21 01:57:56;;;;;;;4.15;2.65;;;;;;;6.35;73.96;99378.09;5063752;28;20090;-42
2023/10/21 02:00:23;;;;;;;5.25;2.83;;;;;;;6.39;73.97;99392.63;5065348;28;20043;-41
2023/10/21 02:02:51;;;;;;;6.30;2.95;;;;;;;6.40;73.90;99396.06;5064497;28;20032;-41
2023/10/21 02:05:18;;;;;;;5.35;2.70;;;;;;;6.40;73.77;99390.88;5064872;28;20036;-42
2023/10/21 02:07:44;;;;;;;5.55;2.95;;;;;;;6.40;74.05;99401.22;5065305;28;20123;-40
2023/10/21 02:10:10;;;;;;;5.18;2.85;;;;;;;6.38;73.87;99393.50;5066529;28;20040;-41
2023/10/21 02:12:37;;;;;;;6.50;2.92;;;;;;;6.38;74.18;99393.50;5062122;28;20044;-42
2023/10/21 02:15:11;;;;;;;9.82;3.22;;;;;;;6.22;74.03;99373.25;5065858;28;20040;-42
2023/10/21 02:17:39;;;;;;;6.47;3.00;;;;;;;6.35;74.22;99400.47;5081058;28;20508;-42
2023/10/21 02:20:25;;;;;;;6.57;3.90;;;;;;;6.33;74.19;99405.66;5047543;28;20260;-41
2023/10/21 02:22:52;;;;;;;5.78;3.03;;;;;;;6.18;74.25;99384.50;5082125;28;20044;-42
2023/10/21 02:25:19;;;;;;;8.77;3.53;;;;;;;6.35;73.65;99409.06;5081520;28;20059;-42
2023/10/21 02:27:47;;;;;;;8.88;3.60;;;;;;;6.18;74.05;99387.91;5064819;28;20058;-41
2023/10/21 02:30:15;;;;;;;5.63;2.92;;;;;;;6.42;73.76;99427.88;5048307;28;20515;-41
2023/10/21 02:32:47;;;;;;;10.98;4.38;;;;;;;6.38;73.70;99426.25;5065221;28;20032;-41
2023/10/21 02:35:15;;;;;;;8.32;4.18;;;;;;;6.36;73.92;99425.41;5063040;28;20036;-42
2023/10/21 02:37:42;;;;;;;10.70;5.05;;;;;;;6.31;74.42;99428.09;5062147;28;20155;-41
2023/10/21 02:40:09;;;;;;;5.60;3.05;;;;;;;6.30;74.24;99428.13;5064698;28;20067;-41
2023/10/21 02:42:35;;;;;;;9.32;3.00;;;;;;;6.33;74.35;99438.41;5054034;28;20139;-41
2023/10/21 02:45:02;;;;;;;7.82;2.50;;;;;;;6.30;74.09;99441.03;5068722;28;20178;-41
2023/10/21 02:47:32;;;;;;;7.28;2.85;;;;;;;6.23;74.05;99435.13;5068525;28;20048;-42
2023/10/21 02:49:59;;;;;;;6.13;2.70;;;;;;;6.17;73.63;99442.19;5068048;28;20076;-42
2023/10/21 02:52:25;;;;;;;6.75;3.13;;;;;;;5.88;73.99;99409.19;5069000;28;20409;-41
2023/10/21 02:54:51;;;;;;;4.85;3.35;;;;;;;6.05;74.08;99435.53;5017887;28;20086;-41
2023/10/21 02:57:17;;;;;;;4.72;2.92;;;;;;;6.09;74.56;99434.56;5069724;28;20044;-42
2023/10/21 02:59:42;;;;;;;5.43;2.83;;;;;;;6.12;74.62;99436.25;5068330;28;20431;-42
2023/10/21 03:02:08;;;;;;;6.25;3.40;;;;;;;6.14;74.13;99448.22;5067913;28;20032;-43
2023/10/21 03:04:35;;;;;;;4.40;2.45;;;;;;;5.97;74.01;99427.94;5067955;28;20174;-41
2023/10/21 03:07:03;;;;;;;4.43;2.60;;;;;;;6.11;74.16;99453.47;5052037;28;20041;-42
2023/10/21 03:09:30;;;;;;;5.03;2.60;;;;;;;6.09;74.27;99451.78;5069132;28;20527;-43
2023/10/21 03:11:56;;;;;;;8.63;2.92;;;;;;;6.05;73.97;99440.69;5084716;28;20043;-42
2023/10/21 03:14:22;;;;;;;3.97;2.45;;;;;;;6.03;74.15;99445.03;5067202;28;20526;-41
2023/10/21 03:16:48;;;;;;;4.60;2.50;;;;;;;5.86;73.73;99424.66;5067695;28;20048;-41
2023/10/21 03:19:16;;;;;;;3.45;2.10;;;;;;;5.85;73.57;99446.22;5067366;28;20432;-41
2023/10/21 03:21:44;;;;;;;5.85;2.65;;;;;;;6.01;73.33;99469.16;5068117;28;20164;-42
2023/10/21 03:24:11;;;;;;;6.83;2.27;;;;;;;6.00;73.62;99460.56;5069433;28;20036;-42
2023/10/21 03:26:37;;;;;;;5.72;2.50;;;;;;;6.01;73.67;99467.44;5059718;28;20047;-41
2023/10/21 03:29:03;;;;;;;5.75;2.38;;;;;;;6.00;73.52;99480.38;5068397;28;20036;-42
2023/10/21 03:31:29;;;;;;;4.20;2.42;;;;;;;5.97;73.90;99480.44;5067731;28;20068;-41
2023/10/21 03:33:56;;;;;;;4.97;2.42;;;;;;;5.93;73.92;99477.91;5054568;28;20464;-42
2023/10/21 03:36:22;;;;;;;5.88;2.20;;;;;;;5.75;73.44;99447.28;5068837;28;20032;-42
2023/10/21 03:38:48;;;;;;;5.35;2.60;;;;;;;5.87;73.49;99475.44;5067093;28;20512;-41
2023/10/21 03:41:15;;;;;;;4.28;2.45;;;;;;;5.86;73.26;99481.41;5068993;28;20174;-42
2023/10/21 03:43:41;;;;;;;6.45;2.65;;;;;;;5.84;72.93;99484.94;5067516;28;20527;-42
2023/10/21 03:46:08;;;;;;;3.42;2.13;;;;;;;5.61;72.40;99461.25;5047910;28;20097;-45
2023/10/21 03:48:35;;;;;;;5.25;2.13;;;;;;;5.57;72.82;99464.78;5067964;28;20457;-42
2023/10/21 03:51:11;;;;;;;4.68;2.28;;;;;;;5.63;72.74;99482.72;5067088;28;20051;-41
2023/10/21 03:53:41;;;;;;;3.95;2.20;;;;;;;5.67;72.99;99492.09;5083968;28;20079;-42
2023/10/21 03:56:11;;;;;;;5.18;2.50;;;;;;;5.69;72.82;99500.69;5041339;28;20045;-42
2023/10/21 03:58:38;;;;;;;2.88;2.05;;;;;;;5.74;72.76;99506.59;5067149;28;20123;-43
2023/10/21 04:01:05;;;;;;;3.70;1.98;;;;;;;5.79;72.51;99510.81;5047703;28;20075;-42
2023/10/21 04:03:31;;;;;;;5.35;2.30;;;;;;;5.54;72.54;99468.28;5068051;28;20044;-41
2023/10/21 04:05:58;;;;;;;3.38;2.10;;;;;;;5.65;72.83;99487.00;5049279;28;20091;-42
2023/10/21 04:08:25;;;;;;;4.45;2.50;;;;;;;5.56;72.37;99479.41;5068209;28;20041;-41
2023/10/21 04:10:54;;;;;;;4.45;2.38;;;;;;;5.84;72.87;99527.06;5066783;28;20032;-42
2023/10/21 04:13:21;;;;;;;;;;;;;;;5.86;72.80;99529.63;5066083;28;20093;-42
2023/10/21 04:15:46;;;;;;;5.43;2.22;;;;;;;5.85;72.47;99540.81;5066250;28;19916;-44
2023/10/21 04:18:13;;;;;;;4.57;2.92;;;;;;;5.80;72.75;99535.72;5069178;28;20032;-42
2023/10/21 04:20:39;;;;;;;5.47;2.28;;;;;;;5.84;72.05;99542.53;5065697;28;20047;-42
2023/10/21 04:23:05;;;;;;;4.05;2.00;;;;;;;5.88;72.74;99540.78;5065074;28;20040;-41
2023/10/21 04:25:32;;;;;;;2.85;2.00;;;;;;;5.81;72.13;99544.31;5066591;28;20056;-42
2023/10/21 04:27:58;;;;;;;3.65;2.08;;;;;;;5.84;72.74;99554.59;5083289;28;20075;-41
2023/10/21 04:30:25;;;;;;;5.55;2.17;;;;;;;5.55;72.47;99496.59;5066621;28;20039;-41
2023/10/21 04:32:52;;;;;;;4.25;2.50;;;;;;;5.86;72.84;99542.53;5066059;28;20130;-49
2023/10/21 04:35:19;;;;;;;5.50;2.75;;;;;;;5.85;72.23;99548.56;5067170;28;20597;-41
2023/10/21 04:37:45;;;;;;;4.15;2.58;;;;;;;5.88;72.69;99553.69;5065099;28;20549;-42
2023/10/21 04:40:12;;;;;;;5.25;2.33;;;;;;;5.89;72.75;99553.66;5061932;28;20090;-42
2023/10/21 04:42:38;;;;;;;4.53;2.47;;;;;;;5.87;72.57;99555.41;5066247;28;20048;-44
2023/10/21 04:45:07;;;;;;;4.95;2.25;;;;;;;5.92;72.55;99563.91;5065025;28;20052;-42
2023/10/21 04:47:33;;;;;;;4.05;2.20;;;;;;;5.91;72.01;99566.53;5065613;28;20512;-42
2023/10/21 04:49:59;;;;;;;9.27;2.38;;;;;;;5.94;72.13;99567.31;5063567;28;20051;-39
2023/10/21 04:52:25;;;;;;;3.80;2.47;;;;;;;5.93;72.64;99565.63;5046722;28;20057;-41
2023/10/21 04:54:51;;;;;;;4.97;2.75;;;;;;;5.97;71.85;99571.56;5046875;28;20452;-42
2023/10/21 04:57:17;;;;;;;4.15;2.42;;;;;;;5.99;72.01;99574.97;5066591;28;20388;-42
2023/10/21 04:59:43;;;;;;;5.90;2.75;;;;;;;5.94;72.27;99569.91;5067012;28;20047;-42
2023/10/21 05:02:09;;;;;;;3.83;2.40;;;;;;;6.00;71.89;99583.56;5064812;28;20372;-42
2023/10/21 05:04:35;;;;;;;3.45;2.10;;;;;;;6.02;72.17;99590.41;5067610;28;20512;-43
2023/10/21 05:07:02;;;;;;;6.72;2.40;;;;;;;5.83;71.97;99551.16;5066812;28;20044;-42
2023/10/21 05:09:30;;;;;;;4.97;2.22;;;;;;;6.01;72.21;99580.97;5067020;28;20129;-41
2023/10/21 05:11:57;;;;;;;5.65;3.45;;;;;;;6.06;71.64;99594.66;5032100;28;20181;-43
2023/10/21 05:14:23;;;;;;;5.43;2.85;;;;;;;6.08;71.59;99589.44;5065427;28;20127;-42
2023/10/21 05:16:49;;;;;;;6.60;2.85;;;;;;;6.12;71.47;99597.13;5067121;28;20135;-42
2023/10/21 05:19:14;;;;;;;3.50;2.17;;;;;;;6.16;71.24;99591.03;5067954;28;20087;-42
2023/10/21 05:21:40;;;;;;;4.78;3.08;;;;;;;6.21;71.21;99596.09;5066386;28;20044;-42
2023/10/21 05:24:06;;;;;;;4.95;2.67;;;;;;;6.29;71.40;99599.38;5065424;28;20033;-41
2023/10/21 05:26:32;;;;;;;5.88;3.05;;;;;;;6.14;71.15;99577.28;5066517;28;20083;-40
2023/10/21 05:28:58;;;;;;;5.50;2.83;;;;;;;6.33;70.71;99609.63;5065829;28;20456;-42
2023/10/21 05:31:24;;;;;;;10.52;3.28;;;;;;;6.24;70.75;99590.88;5064356;28;20052;-42
2023/10/21 05:33:50;;;;;;;6.70;3.13;;;;;;;6.41;71.22;99612.06;5064581;28;20044;-42
2023/10/21 05:36:16;;;;;;;5.15;2.60;;;;;;;6.45;70.86;99608.53;5061410;28;20055;-42
2023/10/21 05:38:42;;;;;;;5.45;2.40;;;;;;;6.38;70.73;99605.22;5062806;28;20068;-43
2023/10/21 05:41:08;;;;;;;6.28;2.72;;;;;;;6.28;70.68;99600.28;5065156;28;20033;-43
2023/10/21 05:43:34;;;;;;;13.95;4.32;;;;;;;6.40;71.08;99618.09;5066611;28;20051;-41
2023/10/21 05:46:03;;;;;;;7.75;4.20;;;;;;;6.33;70.98;99625.09;5063560;28;20036;-43
2023/10/21 05:48:30;;;;;;;7.53;4.75;;;;;;;6.31;70.87;99633.78;5059949;28;20091;-43
2023/10/21 05:51:00;;;;;;;4.75;2.72;;;;;;;6.31;71.24;99637.22;5066063;28;20415;-43
2023/10/21 05:53:26;;;;;;;6.35;2.55;;;;;;;6.13;71.10;99616.88;5066400;28;20458;-43
2023/10/21 05:55:57;;;;;;;6.13;2.10;;;;;;;6.31;70.78;99642.38;5066755;28;20033;-41
2023/10/21 05:58:24;;;;;;;6.40;2.15;;;;;;;6.20;70.68;99636.56;5065790;28;20041;-42
2023/10/21 06:00:50;;;;;;;4.30;1.77;;;;;;;6.28;70.76;99652.75;5032352;28;20037;-42
2023/10/21 06:03:17;;;;;;;2.72;2.13;;;;;;;6.26;70.15;99649.34;5041086;28;20572;-42
2023/10/21 06:05:43;;;;;;;2.70;2.00;;;;;;;5.89;70.21;99596.66;5044370;28;20094;-42
2023/10/21 06:08:10;;;;;;;4.68;2.33;;;;;;;6.26;70.73;99658.81;5066467;28;20056;-41
2023/10/21 06:10:37;;;;;;;6.05;2.60;;;;;;;6.11;70.27;99641.88;5064776;28;20101;-43
2023/10/21 06:13:05;;;;;;;5.90;2.50;;;;;;;6.26;70.35;99661.41;5061513;28;20032;-43
2023/10/21 06:15:32;;;;;;;6.47;2.53;;;;;;;6.20;70.51;99659.78;5062719;28;20126;-42
2023/10/21 06:17:59;;;;;;;7.60;3.10;;;;;;;6.10;70.35;99650.50;5051003;28;20040;-41
2023/10/21 06:20:25;;;;;;;9.60;3.47;;;;;;;6.26;70.64;99679.47;5068509;28;20047;-42
2023/10/21 06:22:52;;;;;;;11.07;3.70;;;;;;;6.23;70.53;99677.78;5068549;28;20091;-43
2023/10/21 06:25:18;;;;;;;7.97;3.25;;;;;;;6.22;70.33;99667.50;5068331;28;20060;-41
2023/10/21 06:27:44;;;;;;;9.40;3.50;;;;;;;6.24;70.73;99673.47;5051806;28;20044;-41
2023/10/21 06:30:11;;;;;;;9.02;3.47;;;;;;;6.25;70.49;99672.59;5067836;28;20036;-41
2023/10/21 06:32:37;;;;;;;5.65;2.67;;;;;;;6.25;70.38;99670.03;5067660;28;20068;-41
2023/10/21 06:35:03;;;;;;;6.97;2.78;;;;;;;6.29;70.35;99676.84;5069257;28;20037;-41
2023/10/21 06:37:33;;;;;;;5.95;2.67;;;;;;;6.35;69.95;99672.41;5050093;28;20051;-41
2023/10/21 06:39:59;;;;;;;5.05;2.80;;;;;;;6.33;70.03;99673.34;5053717;28;20048;-42
2023/10/21 06:42:25;;;;;;;5.90;2.65;;;;;;;6.04;69.98;99618.75;5068702;28;20040;-41
2023/10/21 06:44:51;;;;;;;3.92;2.33;;;;;;;6.36;69.66;99668.97;5064845;28;20041;-41
2023/10/21 06:47:17;;;;;;;3.40;1.92;;;;;;;6.42;69.50;99678.34;5067900;28;20036;-42
2023/10/21 06:49:45;;;;;;;3.28;2.00;;;;;;;6.47;69.16;99686.00;5040248;28;20109;-41
2023/10/21 06:52:11;;;;;;;3.42;2.10;;;;;;;6.47;68.50;99689.44;5066005;28;20051;-41
2023/10/21 06:54:37;;;;;;;2.58;1.80;;;;;;;6.34;68.36;99664.69;5068843;28;20204;-41
2023/10/21 06:57:04;;;;;;;4.45;2.08;;;;;;;6.47;67.90;99680.84;5068988;28;20036;-42
2023/10/21 06:59:32;;;;;;;4.32;1.90;;;;;;;6.60;67.86;99692.63;5067746;28;20044;-42
2023/10/21 07:01:59;;;;;;;4.78;2.00;;;;;;;6.48;66.99;99664.47;5066188;28;20064;-42
2023/10/21 07:04:26;;;;;;;3.17;1.70;;;;;;;6.68;66.95;99691.63;5067452;28;20127;-43
2023/10/21 07:06:52;;;;;;;2.53;1.88;;;;;;;6.65;66.32;99701.16;5066952;28;20079;-42
2023/10/21 07:09:18;;;;;;;2.25;1.58;;;;;;;6.57;66.59;99709.06;5067615;28;20140;-42
2023/10/21 07:11:45;;;;;;;3.55;1.92;;;;;;;6.59;66.41;99706.47;5067033;28;20797;-41
2023/10/21 07:14:12;;;;;;;5.22;2.10;;;;;;;6.45;66.39;99687.75;5067192;28;20042;-42
2023/10/21 07:16:40;;;;;;;6.80;2.40;;;;;;;6.39;66.51;99675.78;5068963;28;20515;-42
2023/10/21 07:19:06;;;;;;;9.82;3.47;;;;;;;6.56;66.77;99693.56;5035443;28;20075;-41
2023/10/21 07:21:32;;;;;;;6.60;2.47;;;;;;;6.66;66.78;99720.94;5050185;28;20071;-41
2023/10/21 07:24:00;;;;;;;3.88;2.00;;;;;;;6.66;66.52;99721.81;5067908;28;20607;-41
2023/10/21 07:26:29;;;;;;;5.78;2.30;;;;;;;6.69;66.44;99731.25;5068191;28;20146;-40
2023/10/21 07:28:56;;;;;;;7.35;1.83;;;;;;;6.71;66.47;99732.03;5049640;28;20044;-41
2023/10/21 07:31:22;;;;;;;4.57;1.98;;;;;;;6.79;65.98;99736.22;5064996;28;20067;-41
2023/10/21 07:33:51;;;;;;;6.28;2.25;;;;;;;6.82;66.36;99741.31;5066849;28;20861;-41
2023/10/21 07:36:17;;;;;;;;;;;;;;;6.79;65.67;99737.94;5068228;28;20094;-42
2023/10/21 07:38:43;;;;;;;2.85;1.40;;;;;;;6.73;65.03;99735.47;5067789;28;19971;-41
2023/10/21 07:41:12;;;;;;;2.22;1.33;;;;;;;6.74;65.04;99747.50;5059376;28;20044;-41
2023/10/21 07:43:39;;;;;;;2.20;1.48;;;;;;;6.78;64.84;99743.97;5049832;28;20067;-42
2023/10/21 07:46:05;;;;;;;2.67;1.50;;;;;;;6.79;64.43;99756.03;5067993;28;20036;-43
2023/10/21 07:48:31;;;;;;;2.65;1.55;;;;;;;6.62;64.16;99729.63;5068006;28;20085;-43
2023/10/21 07:50:58;;;;;;;4.03;2.05;;;;;;;6.74;64.17;99750.09;5068311;28;20036;-43
2023/10/21 07:53:25;;;;;;;4.40;1.60;;;;;;;6.78;64.51;99759.50;5067661;28;20516;-43
2023/10/21 07:55:52;;;;;;;2.50;1.80;;;;;;;6.68;64.23;99730.38;5066659;28;20071;-41
2023/10/21 07:58:18;;;;;;;2.92;1.70;;;;;;;6.73;64.60;99731.16;5049960;28;20419;-42
2023/10/21 08:00:44;;;;;;;6.93;1.95;;;;;;;6.91;64.23;99763.53;5066448;28;20037;-42
2023/10/21 08:03:10;;;;;;;5.22;1.92;;;;;;;7.04;64.20;99761.59;5067088;28;20059;-40
2023/10/21 08:05:36;;;;;;;3.33;1.90;;;;;;;7.07;63.98;99766.69;5064014;28;20067;-41
2023/10/21 08:08:03;;;;;;;4.07;1.52;;;;;;;7.02;63.96;99760.75;5066537;28;20068;-43
2023/10/21 08:10:30;;;;;;;4.30;2.13;;;;;;;6.97;63.91;99741.91;5065819;28;20582;-42
2023/10/21 08:12:56;;;;;;;2.53;1.60;;;;;;;7.18;63.72;99768.19;5066657;28;20048;-40
2023/10/21 08:15:22;;;;;;;5.53;1.80;;;;;;;7.17;63.48;99750.97;5065983;28;20063;-42
2023/10/21 08:17:49;;;;;;;3.00;1.70;;;;;;;7.20;63.48;99743.19;5066999;28;20044;-43
2023/10/21 08:20:15;;;;;;;4.78;2.33;;;;;;;7.23;64.02;99742.25;5065394;28;20127;-42
2023/10/21 08:22:41;;;;;;;7.00;1.95;;;;;;;7.27;63.37;99750.81;5067009;28;20127;-42
2023/10/21 08:25:08;;;;;;;4.75;1.30;;;;;;;7.44;63.44;99772.00;5065799;28;20032;-42
2023/10/21 08:27:36;;;;;;;4.25;1.77;;;;;;;7.53;63.36;99782.19;5065853;28;20515;-41
2023/10/21 08:30:04;;;;;;;5.00;2.03;;;;;;;7.53;63.14;99764.94;5048821;28;20127;-42
2023/10/21 08:32:33;;;;;;;3.33;1.55;;;;;;;7.81;63.01;99785.88;5064104;28;20047;-41
2023/10/21 08:34:59;;;;;;;2.95;1.73;;;;;;;7.85;62.84;99795.28;5066099;28;20127;-42
2023/10/21 08:37:25;;;;;;;2.88;1.80;;;;;;;7.71;62.60;99771.44;5033228;28;20052;-43
2023/10/21 08:39:50;;;;;;;3.03;1.80;;;;;;;7.73;62.24;99774.00;5064537;28;20052;-42
2023/10/21 08:42:17;;;;;;;5.35;1.60;;;;;;;7.89;61.94;99798.66;5065522;28;20225;-42
2023/10/21 08:44:47;;;;;;;6.50;2.90;;;;;;;7.70;61.08;99737.81;5063050;28;20042;-41
2023/10/21 08:47:13;;;;;;;;;;;;;;;8.19;61.22;99808.34;5065639;28;20055;-43
2023/10/21 08:49:39;;;;;;;2.33;1.75;;;;;;;8.15;60.51;99775.63;5030477;28;19916;-42
2023/10/21 08:52:09;;;;;;;8.30;2.00;;;;;;;8.38;60.36;99794.09;5065478;28;20040;-44
2023/10/21 08:54:37;;;;;;;3.65;2.03;;;;;;;8.43;59.97;99800.03;5064772;28;20454;-42
2023/10/21 08:57:03;;;;;;;3.67;2.05;;;;;;;8.45;60.03;99800.84;5065635;28;20044;-42
2023/10/21 08:59:29;;;;;;;3.80;1.63;;;;;;;8.49;59.48;99812.84;5066890;28;20080;-42
2023/10/21 09:01:56;;;;;;;4.95;1.95;;;;;;;8.37;59.91;99820.06;5066389;28;20055;-43
2023/10/21 09:04:22;;;;;;;9.15;4.68;;;;;;;8.24;60.33;99826.38;5065534;28;20044;-42
2023/10/21 09:07:00;;;;;;;4.75;1.95;;;;;;;7.95;60.67;99791.63;5065931;28;20040;-42
2023/10/21 09:09:28;;;;;;;3.72;2.30;;;;;;;8.01;60.63;99814.78;5063402;28;20051;-43
2023/10/21 09:12:13;;;;;;;5.22;2.22;;;;;;;7.95;61.17;99820.09;5066312;28;20045;-42
2023/10/21 09:14:55;;;;;;;7.82;2.78;;;;;;;7.97;60.97;99823.50;5062933;28;20063;-42
2023/10/21 09:17:46;;;;;;;5.10;3.33;;;;;;;7.93;60.99;99828.78;5065672;28;20476;-42
2023/10/21 09:20:13;;;;;;;7.78;2.90;;;;;;;7.87;60.97;99837.53;5065445;28;20200;-42
2023/10/21 09:22:40;;;;;;;4.43;2.63;;;;;;;7.89;61.08;99840.09;5063657;28;20040;-42
2023/10/21 09:25:20;;;;;;;3.42;2.10;;;;;;;7.85;60.96;99844.44;5066495;28;20036;-43
2023/10/21 09:27:55;;;;;;;3.88;2.25;;;;;;;7.81;60.67;99839.38;5065794;28;20067;-42
2023/10/21 09:30:24;;;;;;;4.10;2.30;;;;;;;7.78;60.65;99834.28;5063730;28;20151;-41
2023/10/21 09:32:50;;;;;;;5.97;2.13;;;;;;;7.79;60.65;99825.63;5067125;28;20041;-43
2023/10/21 09:35:30;;;;;;;6.57;2.60;;;;;;;7.96;60.95;99836.47;5063459;28;20128;-42
2023/10/21 09:37:57;;;;;;;8.23;4.00;;;;;;;8.13;60.62;99838.69;5064704;28;20515;-44
2023/10/21 09:40:28;;;;;;;7.03;2.60;;;;;;;8.12;60.66;99837.84;5077119;28;20041;-43
2023/10/21 09:42:55;;;;;;;3.95;2.60;;;;;;;8.10;60.38;99839.63;5066414;28;20059;-43
2023/10/21 09:45:23;;;;;;;4.07;2.50;;;;;;;8.14;60.42;99843.84;5064061;28;20044;-42
2023/10/21 09:47:52;;;;;;;5.57;2.65;;;;;;;8.00;60.14;99827.78;5066930;28;20677;-43
2023/10/21 09:50:19;;;;;;;4.75;2.83;;;;;;;8.14;60.39;99843.84;5066748;28;20051;-45
2023/10/21 09:53:06;;;;;;;4.82;2.45;;;;;;;8.25;59.88;99849.66;5066533;28;20043;-46
2023/10/21 09:55:33;;;;;;;7.78;3.00;;;;;;;8.39;59.87;99849.34;5067515;28;20124;-43
2023/10/21 09:58:00;;;;;;;4.05;2.75;;;;;;;8.54;59.19;99848.16;5035343;28;20501;-45
2023/10/21 10:00:26;;;;;;;5.55;2.63;;;;;;;8.78;58.33;99847.56;5067686;28;20063;-43
2023/10/21 10:02:54;;;;;;;6.75;2.25;;;;;;;8.90;57.85;99821.31;5068912;28;20655;-43
2023/10/21 10:05:23;;;;;;;3.25;1.80;;;;;;;9.14;57.53;99819.84;5050661;28;20557;-44
2023/10/21 10:07:50;;;;;;;2.53;2.05;;;;;;;9.36;56.49;99859.91;5049180;28;20040;-41
2023/10/21 10:10:17;;;;;;;3.28;2.40;;;;;;;9.22;56.72;99844.69;5067276;28;20033;-43
2023/10/21 10:12:52;;;;;;;5.05;2.45;;;;;;;9.35;57.05;99859.06;5068721;28;20200;-45
2023/10/21 10:15:39;;;;;;;5.35;2.38;;;;;;;9.30;57.16;99867.84;5068709;28;20143;-44
2023/10/21 10:18:07;;;;;;;6.15;2.95;;;;;;;9.15;57.20;99853.53;5051154;28;20036;-42
2023/10/21 10:20:33;;;;;;;7.47;3.13;;;;;;;9.03;56.92;99840.88;5068612;28;20040;-41
2023/10/21 10:23:07;;;;;;;5.85;3.15;;;;;;;9.18;56.82;99857.78;5042031;28;20036;-41
2023/10/21 10:25:36;;;;;;;9.35;5.15;;;;;;;9.11;56.97;99846.72;5064444;28;20508;-41
2023/10/21 10:28:04;;;;;;;10.40;3.47;;;;;;;9.08;56.90;99852.00;5059133;28;20041;-42
2023/10/21 10:30:36;;;;;;;8.73;4.00;;;;;;;9.10;56.90;99845.03;5068545;28;20041;-42
2023/10/21 10:33:08;;;;;;;9.68;3.60;;;;;;;9.29;57.02;99848.00;5065792;28;20040;-42
2023/10/21 10:35:41;;;;;;;9.18;2.97;;;;;;;9.31;56.65;99852.25;5069011;28;20044;-41
2023/10/21 10:38:20;;;;;;;6.40;3.03;;;;;;;9.05;56.81;99836.53;5069720;28;20039;-41
2023/10/21 10:40:47;;;;;;;4.78;2.90;;;;;;;9.16;56.59;99860.41;5066762;28;20064;-40
2023/10/21 10:43:14;;;;;;;6.70;2.53;;;;;;;9.12;56.60;99858.78;5066531;28;20489;-42
2023/10/21 10:45:40;;;;;;;10.15;2.47;;;;;;;9.08;57.17;99864.09;5059229;28;20033;-42
2023/10/21 10:48:10;;;;;;;6.72;2.65;;;;;;;9.02;56.88;99869.44;5068947;28;20093;-42
2023/10/21 10:50:39;;;;;;;4.68;2.50;;;;;;;8.91;56.96;99872.28;5066835;28;20473;-41
2023/10/21 10:53:22;;;;;;;17.08;4.75;;;;;;;8.78;57.19;99870.91;5069295;28;20139;-41
2023/10/21 10:55:49;;;;;;;5.15;2.50;;;;;;;8.74;57.32;99885.66;5064037;28;20037;-42
2023/10/21 10:58:18;;;;;;;3.72;2.47;;;;;;;8.73;57.87;99877.94;5050506;28;20482;-40
2023/10/21 11:00:45;;;;;;;9.40;4.15;;;;;;;8.70;57.77;99885.78;5066496;28;20082;-43
2023/10/21 11:03:22;;;;;;;7.13;2.88;;;;;;;8.68;57.83;99885.84;5050994;28;20049;-42
2023/10/21 11:05:48;;;;;;;4.78;2.33;;;;;;;8.68;57.82;99890.16;5066700;28;20040;-41
2023/10/21 11:08:15;;;;;;;3.65;2.45;;;;;;;8.65;57.72;99885.88;5065190;28;20047;-40
2023/10/21 11:10:41;;;;;;;8.75;3.30;;;;;;;8.60;57.88;99885.13;5064357;28;20082;-42
2023/10/21 11:13:07;;;;;;;8.57;2.60;;;;;;;8.59;57.59;99886.03;5064309;28;20048;-42
2023/10/21 11:15:41;;;;;;;12.70;4.22;;;;;;;8.58;58.12;99896.44;5066540;28;20506;-43
2023/10/21 11:18:07;;;;;;;8.15;3.47;;;;;;;8.56;58.10;99911.16;5050227;28;20045;-42
2023/10/21 11:20:33;;;;;;;6.63;2.78;;;;;;;8.50;58.17;99900.06;5064549;28;20033;-41
2023/10/21 11:23:10;;;;;;;10.38;3.35;;;;;;;8.18;57.67;99861.00;5066463;28;20130;-43
2023/10/21 11:25:36;;;;;;;3.67;2.00;;;;;;;8.26;57.85;99871.22;5065895;28;20397;-43
2023/10/21 11:28:02;;;;;;;3.72;2.33;;;;;;;8.43;57.38;99905.38;5066896;28;20043;-42
2023/10/21 11:30:29;;;;;;;5.60;2.58;;;;;;;8.37;57.10;99908.13;5067849;28;20048;-42
2023/10/21 11:32:55;;;;;;;3.83;1.90;;;;;;;8.18;57.43;99889.50;5058721;28;20039;-42
2023/10/21 11:35:23;;;;;;;5.68;3.08;;;;;;;8.24;57.00;99917.00;5049985;28;20459;-42
2023/10/21 11:37:55;;;;;;;4.10;2.50;;;;;;;8.02;57.23;99886.38;5050354;28;20056;-41
2023/10/21 11:40:21;;;;;;;2.53;1.77;;;;;;;8.18;56.80;99922.31;5068161;28;20041;-42
2023/10/21 11:43:05;;;;;;;2.45;1.77;;;;;;;8.18;57.03;99923.16;5067632;28;20462;-43